sensor_id;sensor_type;location;lat;lon;timestamp;temperature;humidity
32217;DHT22;67098;51.140;4.088;2024-03-29T00:00:01;11.70;84.50
32217;DHT22;67098;51.140;4.088;2024-03-29T00:02:28;11.70;84.80
32217;DHT22;67098;51.140;4.088;2024-03-29T00:04:54;11.60;85.10
32217;DHT22;67098;51.140;4.088;2024-03-29T00:07:20;11.60;84.70
32217;DHT22;67098;51.140;4.088;2024-03-29T00:09:46;11.70;84.40
32217;DHT22;67098;51.140;4.088;2024-03-29T00:12:11;11.60;84.70
32217;DHT22;67098;51.140;4.088;2024-03-29T00:14:37;11.60;84.70
32217;DHT22;67098;51.140;4.088;2024-03-29T00:17:03;11.60;84.70
32217;DHT22;67098;51.140;4.088;2024-03-29T00:19:30;11.60;84.80
32217;DHT22;67098;51.140;4.088;2024-03-29T00:21:55;11.60;84.70
32217;DHT22;67098;51.140;4.088;2024-03-29T00:24:21;11.50;85.00
32217;DHT22;67098;51.140;4.088;2024-03-29T00:26:46;11.50;85.00
32217;DHT22;67098;51.140;4.088;2024-03-29T00:29:12;11.50;84.70
32217;DHT22;67098;51.140;4.088;2024-03-29T00:31:38;11.70;84.60
32217;DHT22;67098;51.140;4.088;2024-03-29T00:34:04;11.70;84.40
32217;DHT22;67098;51.140;4.088;2024-03-29T00:36:30;11.70;84.20
32217;DHT22;67098;51.140;4.088;2024-03-29T00:38:56;11.80;84.00
32217;DHT22;67098;51.140;4.088;2024-03-29T00:41:22;11.80;84.20
32217;DHT22;67098;51.140;4.088;2024-03-29T00:43:48;11.80;84.00
32217;DHT22;67098;51.140;4.088;2024-03-29T00:46:14;11.90;83.80
32217;DHT22;67098;51.140;4.088;2024-03-29T00:48:40;11.90;83.60
32217;DHT22;67098;51.140;4.088;2024-03-29T00:51:06;11.90;83.60
32217;DHT22;67098;51.140;4.088;2024-03-29T00:53:32;12.00;83.60
32217;DHT22;67098;51.140;4.088;2024-03-29T00:55:57;11.90;83.60
32217;DHT22;67098;51.140;4.088;2024-03-29T00:58:23;12.00;83.70
32217;DHT22;67098;51.140;4.088;2024-03-29T01:00:49;12.00;83.50
32217;DHT22;67098;51.140;4.088;2024-03-29T01:03:15;11.90;83.70
32217;DHT22;67098;51.140;4.088;2024-03-29T01:05:40;11.90;83.70
32217;DHT22;67098;51.140;4.088;2024-03-29T01:08:06;12.00;83.60
32217;DHT22;67098;51.140;4.088;2024-03-29T01:10:32;12.10;83.50
32217;DHT22;67098;51.140;4.088;2024-03-29T01:12:58;12.10;83.10
32217;DHT22;67098;51.140;4.088;2024-03-29T01:15:23;12.20;83.00
32217;DHT22;67098;51.140;4.088;2024-03-29T01:17:49;12.20;82.80
32217;DHT22;67098;51.140;4.088;2024-03-29T01:20:15;12.20;83.10
32217;DHT22;67098;51.140;4.088;2024-03-29T01:22:41;12.10;83.30
32217;DHT22;67098;51.140;4.088;2024-03-29T01:25:08;12.10;83.50
32217;DHT22;67098;51.140;4.088;2024-03-29T01:27:36;12.10;83.50
32217;DHT22;67098;51.140;4.088;2024-03-29T01:30:02;12.10;83.60
32217;DHT22;67098;51.140;4.088;2024-03-29T01:32:28;11.90;83.70
32217;DHT22;67098;51.140;4.088;2024-03-29T01:34:54;12.00;84.00
32217;DHT22;67098;51.140;4.088;2024-03-29T01:37:20;11.90;84.10
32217;DHT22;67098;51.140;4.088;2024-03-29T01:39:46;11.90;84.10
32217;DHT22;67098;51.140;4.088;2024-03-29T01:42:12;11.80;84.60
32217;DHT22;67098;51.140;4.088;2024-03-29T01:44:38;11.90;84.20
32217;DHT22;67098;51.140;4.088;2024-03-29T01:47:04;12.00;83.80
32217;DHT22;67098;51.140;4.088;2024-03-29T01:49:30;12.00;83.80
32217;DHT22;67098;51.140;4.088;2024-03-29T01:51:56;11.90;84.10
32217;DHT22;67098;51.140;4.088;2024-03-29T01:54:22;11.70;84.50
32217;DHT22;67098;51.140;4.088;2024-03-29T01:56:48;11.70;84.40
32217;DHT22;67098;51.140;4.088;2024-03-29T01:59:16;11.80;84.30
32217;DHT22;67098;51.140;4.088;2024-03-29T02:01:42;11.60;84.50
32217;DHT22;67098;51.140;4.088;2024-03-29T02:04:09;11.80;84.50
32217;DHT22;67098;51.140;4.088;2024-03-29T02:06:37;11.80;84.60
32217;DHT22;67098;51.140;4.088;2024-03-29T02:09:03;11.80;84.50
32217;DHT22;67098;51.140;4.088;2024-03-29T02:11:29;11.70;85.10
32217;DHT22;67098;51.140;4.088;2024-03-29T02:13:56;11.60;85.20
32217;DHT22;67098;51.140;4.088;2024-03-29T02:16:22;11.70;85.20
32217;DHT22;67098;51.140;4.088;2024-03-29T02:18:48;11.80;84.80
32217;DHT22;67098;51.140;4.088;2024-03-29T02:21:13;11.90;84.60
32217;DHT22;67098;51.140;4.088;2024-03-29T02:23:43;11.90;84.60
32217;DHT22;67098;51.140;4.088;2024-03-29T02:26:10;12.00;84.40
32217;DHT22;67098;51.140;4.088;2024-03-29T02:28:36;12.10;84.10
32217;DHT22;67098;51.140;4.088;2024-03-29T02:31:02;12.20;83.90
32217;DHT22;67098;51.140;4.088;2024-03-29T02:33:28;12.30;84.30
32217;DHT22;67098;51.140;4.088;2024-03-29T02:35:54;12.20;84.00
32217;DHT22;67098;51.140;4.088;2024-03-29T02:38:20;12.20;84.60
32217;DHT22;67098;51.140;4.088;2024-03-29T02:40:45;12.10;84.20
32217;DHT22;67098;51.140;4.088;2024-03-29T02:43:11;12.00;84.80
32217;DHT22;67098;51.140;4.088;2024-03-29T02:45:37;12.00;85.10
32217;DHT22;67098;51.140;4.088;2024-03-29T02:48:03;12.10;84.90
32217;DHT22;67098;51.140;4.088;2024-03-29T02:50:28;12.10;84.80
32217;DHT22;67098;51.140;4.088;2024-03-29T02:52:54;12.00;84.90
32217;DHT22;67098;51.140;4.088;2024-03-29T02:55:20;11.90;85.30
32217;DHT22;67098;51.140;4.088;2024-03-29T02:57:46;11.90;86.60
32217;DHT22;67098;51.140;4.088;2024-03-29T03:00:12;12.00;86.50
32217;DHT22;67098;51.140;4.088;2024-03-29T03:02:39;11.90;87.90
32217;DHT22;67098;51.140;4.088;2024-03-29T03:05:05;11.80;89.10
32217;DHT22;67098;51.140;4.088;2024-03-29T03:07:32;11.70;90.20
32217;DHT22;67098;51.140;4.088;2024-03-29T03:10:16;11.60;90.50
32217;DHT22;67098;51.140;4.088;2024-03-29T03:13:00;11.70;90.60
32217;DHT22;67098;51.140;4.088;2024-03-29T03:15:26;11.70;90.90
32217;DHT22;67098;51.140;4.088;2024-03-29T03:17:52;11.70;91.10
32217;DHT22;67098;51.140;4.088;2024-03-29T03:20:18;11.70;91.10
32217;DHT22;67098;51.140;4.088;2024-03-29T03:22:45;11.80;91.20
32217;DHT22;67098;51.140;4.088;2024-03-29T03:25:10;11.70;91.30
32217;DHT22;67098;51.140;4.088;2024-03-29T03:27:36;11.70;91.40
32217;DHT22;67098;51.140;4.088;2024-03-29T03:30:02;11.70;91.30
32217;DHT22;67098;51.140;4.088;2024-03-29T03:32:28;11.60;91.40
32217;DHT22;67098;51.140;4.088;2024-03-29T03:34:54;11.70;91.30
32217;DHT22;67098;51.140;4.088;2024-03-29T03:37:19;11.70;91.30
32217;DHT22;67098;51.140;4.088;2024-03-29T03:39:45;11.50;91.60
32217;DHT22;67098;51.140;4.088;2024-03-29T03:42:11;11.70;91.40
32217;DHT22;67098;51.140;4.088;2024-03-29T03:44:36;11.80;91.30
32217;DHT22;67098;51.140;4.088;2024-03-29T03:47:02;11.80;91.30
32217;DHT22;67098;51.140;4.088;2024-03-29T03:49:28;11.70;91.70
32217;DHT22;67098;51.140;4.088;2024-03-29T03:51:54;11.80;91.30
32217;DHT22;67098;51.140;4.088;2024-03-29T03:54:20;11.80;91.30
32217;DHT22;67098;51.140;4.088;2024-03-29T03:56:45;11.70;91.70
32217;DHT22;67098;51.140;4.088;2024-03-29T03:59:11;11.60;91.90
32217;DHT22;67098;51.140;4.088;2024-03-29T04:01:41;11.80;91.90
32217;DHT22;67098;51.140;4.088;2024-03-29T04:04:07;11.80;92.20
32217;DHT22;67098;51.140;4.088;2024-03-29T04:06:33;11.70;92.50
32217;DHT22;67098;51.140;4.088;2024-03-29T04:08:58;11.70;93.00
32217;DHT22;67098;51.140;4.088;2024-03-29T04:11:24;11.70;93.10
32217;DHT22;67098;51.140;4.088;2024-03-29T04:13:50;11.70;93.20
32217;DHT22;67098;51.140;4.088;2024-03-29T04:16:16;11.80;93.40
32217;DHT22;67098;51.140;4.088;2024-03-29T04:18:41;11.80;93.40
32217;DHT22;67098;51.140;4.088;2024-03-29T04:21:07;11.80;93.60
32217;DHT22;67098;51.140;4.088;2024-03-29T04:23:33;11.70;93.80
32217;DHT22;67098;51.140;4.088;2024-03-29T04:25:59;11.60;94.00
32217;DHT22;67098;51.140;4.088;2024-03-29T04:28:25;11.60;94.20
32217;DHT22;67098;51.140;4.088;2024-03-29T04:30:56;11.70;94.10
32217;DHT22;67098;51.140;4.088;2024-03-29T04:33:22;11.80;94.10
32217;DHT22;67098;51.140;4.088;2024-03-29T04:35:59;11.80;94.00
32217;DHT22;67098;51.140;4.088;2024-03-29T04:38:26;11.80;94.00
32217;DHT22;67098;51.140;4.088;2024-03-29T04:40:54;11.80;94.00
32217;DHT22;67098;51.140;4.088;2024-03-29T04:43:24;11.80;94.10
32217;DHT22;67098;51.140;4.088;2024-03-29T04:46:00;11.70;94.00
32217;DHT22;67098;51.140;4.088;2024-03-29T04:48:26;11.70;94.20
32217;DHT22;67098;51.140;4.088;2024-03-29T04:50:52;11.70;94.20
32217;DHT22;67098;51.140;4.088;2024-03-29T04:53:18;11.80;94.10
32217;DHT22;67098;51.140;4.088;2024-03-29T04:55:44;11.70;94.10
32217;DHT22;67098;51.140;4.088;2024-03-29T04:58:13;11.80;94.20
32217;DHT22;67098;51.140;4.088;2024-03-29T05:00:41;11.80;94.10
32217;DHT22;67098;51.140;4.088;2024-03-29T05:03:07;11.70;94.10
32217;DHT22;67098;51.140;4.088;2024-03-29T05:05:33;11.70;94.20
32217;DHT22;67098;51.140;4.088;2024-03-29T05:07:59;11.70;94.20
32217;DHT22;67098;51.140;4.088;2024-03-29T05:10:25;11.60;94.20
32217;DHT22;67098;51.140;4.088;2024-03-29T05:12:50;11.60;94.30
32217;DHT22;67098;51.140;4.088;2024-03-29T05:15:16;11.60;94.30
32217;DHT22;67098;51.140;4.088;2024-03-29T05:17:42;11.50;94.50
32217;DHT22;67098;51.140;4.088;2024-03-29T05:20:08;11.50;94.50
32217;DHT22;67098;51.140;4.088;2024-03-29T05:22:34;11.50;94.50
32217;DHT22;67098;51.140;4.088;2024-03-29T05:25:00;11.50;94.60
32217;DHT22;67098;51.140;4.088;2024-03-29T05:27:27;11.50;94.60
32217;DHT22;67098;51.140;4.088;2024-03-29T05:29:52;11.50;94.60
32217;DHT22;67098;51.140;4.088;2024-03-29T05:32:18;11.40;94.50
32217;DHT22;67098;51.140;4.088;2024-03-29T05:34:44;11.50;94.60
32217;DHT22;67098;51.140;4.088;2024-03-29T05:37:10;11.30;94.60
32217;DHT22;67098;51.140;4.088;2024-03-29T05:39:35;11.30;94.70
32217;DHT22;67098;51.140;4.088;2024-03-29T05:42:01;11.40;94.70
32217;DHT22;67098;51.140;4.088;2024-03-29T05:44:27;11.40;94.50
32217;DHT22;67098;51.140;4.088;2024-03-29T05:46:53;11.30;94.60
32217;DHT22;67098;51.140;4.088;2024-03-29T05:49:18;11.40;94.50
32217;DHT22;67098;51.140;4.088;2024-03-29T05:51:44;11.30;94.90
32217;DHT22;67098;51.140;4.088;2024-03-29T05:54:11;11.30;94.90
32217;DHT22;67098;51.140;4.088;2024-03-29T05:56:36;11.40;94.80
32217;DHT22;67098;51.140;4.088;2024-03-29T05:59:02;11.40;94.90
32217;DHT22;67098;51.140;4.088;2024-03-29T06:01:29;11.40;94.80
32217;DHT22;67098;51.140;4.088;2024-03-29T06:03:55;11.50;94.80
32217;DHT22;67098;51.140;4.088;2024-03-29T06:06:24;11.50;94.80
32217;DHT22;67098;51.140;4.088;2024-03-29T06:08:53;11.60;94.80
32217;DHT22;67098;51.140;4.088;2024-03-29T06:11:19;11.60;94.90
32217;DHT22;67098;51.140;4.088;2024-03-29T06:13:45;11.70;94.90
32217;DHT22;67098;51.140;4.088;2024-03-29T06:16:24;11.70;94.70
32217;DHT22;67098;51.140;4.088;2024-03-29T06:19:09;11.80;94.70
32217;DHT22;67098;51.140;4.088;2024-03-29T06:21:35;11.80;94.70
32217;DHT22;67098;51.140;4.088;2024-03-29T06:24:11;11.80;94.60
32217;DHT22;67098;51.140;4.088;2024-03-29T06:26:41;11.80;94.60
32217;DHT22;67098;51.140;4.088;2024-03-29T06:29:09;11.80;94.60
32217;DHT22;67098;51.140;4.088;2024-03-29T06:31:35;11.90;94.60
32217;DHT22;67098;51.140;4.088;2024-03-29T06:34:01;11.90;94.50
32217;DHT22;67098;51.140;4.088;2024-03-29T06:36:27;11.80;94.50
32217;DHT22;67098;51.140;4.088;2024-03-29T06:38:54;11.80;94.70
32217;DHT22;67098;51.140;4.088;2024-03-29T06:41:20;11.90;94.70
32217;DHT22;67098;51.140;4.088;2024-03-29T06:43:45;12.00;94.80
32217;DHT22;67098;51.140;4.088;2024-03-29T06:46:12;12.00;94.60
32217;DHT22;67098;51.140;4.088;2024-03-29T06:48:38;12.00;94.30
32217;DHT22;67098;51.140;4.088;2024-03-29T06:51:04;12.00;94.60
32217;DHT22;67098;51.140;4.088;2024-03-29T06:53:30;12.10;94.50
32217;DHT22;67098;51.140;4.088;2024-03-29T06:55:56;12.10;94.40
32217;DHT22;67098;51.140;4.088;2024-03-29T06:58:22;12.10;94.30
32217;DHT22;67098;51.140;4.088;2024-03-29T07:00:48;12.10;94.20
32217;DHT22;67098;51.140;4.088;2024-03-29T07:03:15;12.10;94.40
32217;DHT22;67098;51.140;4.088;2024-03-29T07:05:42;12.10;94.50
32217;DHT22;67098;51.140;4.088;2024-03-29T07:08:08;12.10;94.50
32217;DHT22;67098;51.140;4.088;2024-03-29T07:10:34;12.20;94.40
32217;DHT22;67098;51.140;4.088;2024-03-29T07:13:00;12.20;94.40
32217;DHT22;67098;51.140;4.088;2024-03-29T07:15:26;12.30;94.40
32217;DHT22;67098;51.140;4.088;2024-03-29T07:17:53;12.30;94.40
32217;DHT22;67098;51.140;4.088;2024-03-29T07:20:19;12.20;94.30
32217;DHT22;67098;51.140;4.088;2024-03-29T07:22:45;12.20;94.10
32217;DHT22;67098;51.140;4.088;2024-03-29T07:25:11;12.30;94.10
32217;DHT22;67098;51.140;4.088;2024-03-29T07:27:37;12.30;94.20
32217;DHT22;67098;51.140;4.088;2024-03-29T07:30:04;12.30;94.30
32217;DHT22;67098;51.140;4.088;2024-03-29T07:32:32;12.40;94.30
32217;DHT22;67098;51.140;4.088;2024-03-29T07:34:58;12.40;94.30
32217;DHT22;67098;51.140;4.088;2024-03-29T07:37:25;12.50;94.10
32217;DHT22;67098;51.140;4.088;2024-03-29T07:39:51;12.70;94.00
32217;DHT22;67098;51.140;4.088;2024-03-29T07:42:16;12.70;93.80
32217;DHT22;67098;51.140;4.088;2024-03-29T07:44:42;12.80;93.90
32217;DHT22;67098;51.140;4.088;2024-03-29T07:47:08;12.90;93.80
32217;DHT22;67098;51.140;4.088;2024-03-29T07:49:34;12.90;93.70
32217;DHT22;67098;51.140;4.088;2024-03-29T07:52:03;12.90;93.60
32217;DHT22;67098;51.140;4.088;2024-03-29T07:54:31;12.90;93.60
32217;DHT22;67098;51.140;4.088;2024-03-29T07:56:57;12.90;93.80
32217;DHT22;67098;51.140;4.088;2024-03-29T07:59:23;12.90;93.70
32217;DHT22;67098;51.140;4.088;2024-03-29T08:01:49;13.00;93.70
32217;DHT22;67098;51.140;4.088;2024-03-29T08:04:14;13.10;93.70
32217;DHT22;67098;51.140;4.088;2024-03-29T08:06:40;13.10;93.60
32217;DHT22;67098;51.140;4.088;2024-03-29T08:09:06;13.20;93.40
32217;DHT22;67098;51.140;4.088;2024-03-29T08:11:32;13.30;93.50
32217;DHT22;67098;51.140;4.088;2024-03-29T08:13:57;13.40;93.40
32217;DHT22;67098;51.140;4.088;2024-03-29T08:16:23;13.60;93.20
32217;DHT22;67098;51.140;4.088;2024-03-29T08:18:49;13.80;93.20
32217;DHT22;67098;51.140;4.088;2024-03-29T08:21:15;13.90;93.10
32217;DHT22;67098;51.140;4.088;2024-03-29T08:23:41;14.00;93.10
32217;DHT22;67098;51.140;4.088;2024-03-29T08:26:11;14.10;92.90
32217;DHT22;67098;51.140;4.088;2024-03-29T08:28:36;14.10;92.80
32217;DHT22;67098;51.140;4.088;2024-03-29T08:31:05;14.20;92.60
32217;DHT22;67098;51.140;4.088;2024-03-29T08:33:32;14.30;92.80
32217;DHT22;67098;51.140;4.088;2024-03-29T08:35:58;14.40;92.50
32217;DHT22;67098;51.140;4.088;2024-03-29T08:38:24;14.40;92.40
32217;DHT22;67098;51.140;4.088;2024-03-29T08:40:51;14.40;92.50
32217;DHT22;67098;51.140;4.088;2024-03-29T08:43:16;14.40;92.70
32217;DHT22;67098;51.140;4.088;2024-03-29T08:45:44;14.50;92.70
32217;DHT22;67098;51.140;4.088;2024-03-29T08:48:10;14.60;92.40
32217;DHT22;67098;51.140;4.088;2024-03-29T08:50:36;14.60;92.00
32217;DHT22;67098;51.140;4.088;2024-03-29T08:53:03;14.60;92.20
32217;DHT22;67098;51.140;4.088;2024-03-29T08:55:30;14.50;92.50
32217;DHT22;67098;51.140;4.088;2024-03-29T08:57:57;14.70;92.40
32217;DHT22;67098;51.140;4.088;2024-03-29T09:00:25;14.80;92.20
32217;DHT22;67098;51.140;4.088;2024-03-29T09:02:51;15.00;91.80
32217;DHT22;67098;51.140;4.088;2024-03-29T09:05:17;15.10;91.50
32217;DHT22;67098;51.140;4.088;2024-03-29T09:07:42;15.10;91.70
32217;DHT22;67098;51.140;4.088;2024-03-29T09:10:08;15.20;91.50
32217;DHT22;67098;51.140;4.088;2024-03-29T09:12:34;15.30;91.40
32217;DHT22;67098;51.140;4.088;2024-03-29T09:15:00;15.40;90.90
32217;DHT22;67098;51.140;4.088;2024-03-29T09:17:26;15.30;91.10
32217;DHT22;67098;51.140;4.088;2024-03-29T09:19:52;15.10;91.20
32217;DHT22;67098;51.140;4.088;2024-03-29T09:22:18;15.30;91.20
32217;DHT22;67098;51.140;4.088;2024-03-29T09:24:44;15.30;91.20
32217;DHT22;67098;51.140;4.088;2024-03-29T09:27:10;15.20;90.80
32217;DHT22;67098;51.140;4.088;2024-03-29T09:29:36;15.00;91.20
32217;DHT22;67098;51.140;4.088;2024-03-29T09:32:02;15.10;91.10
32217;DHT22;67098;51.140;4.088;2024-03-29T09:34:28;14.90;91.10
32217;DHT22;67098;51.140;4.088;2024-03-29T09:36:54;14.80;91.00
32217;DHT22;67098;51.140;4.088;2024-03-29T09:39:20;14.90;91.30
32217;DHT22;67098;51.140;4.088;2024-03-29T09:41:45;15.00;91.30
32217;DHT22;67098;51.140;4.088;2024-03-29T09:44:11;15.10;91.10
32217;DHT22;67098;51.140;4.088;2024-03-29T09:46:38;15.50;90.70
32217;DHT22;67098;51.140;4.088;2024-03-29T09:49:06;16.00;90.90
32217;DHT22;67098;51.140;4.088;2024-03-29T09:51:33;16.50;90.00
32217;DHT22;67098;51.140;4.088;2024-03-29T09:53:59;16.70;88.70
32217;DHT22;67098;51.140;4.088;2024-03-29T09:56:27;16.70;88.10
32217;DHT22;67098;51.140;4.088;2024-03-29T09:58:52;17.20;89.30
32217;DHT22;67098;51.140;4.088;2024-03-29T10:01:19;17.30;87.50
32217;DHT22;67098;51.140;4.088;2024-03-29T10:03:52;17.30;85.60
32217;DHT22;67098;51.140;4.088;2024-03-29T10:06:19;17.40;85.70
32217;DHT22;67098;51.140;4.088;2024-03-29T10:08:45;17.50;85.60
32217;DHT22;67098;51.140;4.088;2024-03-29T10:11:11;17.70;85.70
32217;DHT22;67098;51.140;4.088;2024-03-29T10:13:37;18.30;85.40
32217;DHT22;67098;51.140;4.088;2024-03-29T10:16:04;18.50;83.40
32217;DHT22;67098;51.140;4.088;2024-03-29T10:18:30;18.40;82.70
32217;DHT22;67098;51.140;4.088;2024-03-29T10:23:27;18.50;82.70
32217;DHT22;67098;51.140;4.088;2024-03-29T10:25:53;18.90;82.80
32217;DHT22;67098;51.140;4.088;2024-03-29T10:28:19;19.30;82.60
32217;DHT22;67098;51.140;4.088;2024-03-29T10:30:45;19.10;80.40
32217;DHT22;67098;51.140;4.088;2024-03-29T10:33:14;19.40;80.30
32217;DHT22;67098;51.140;4.088;2024-03-29T10:35:44;19.40;79.70
32217;DHT22;67098;51.140;4.088;2024-03-29T10:38:10;19.20;79.90
32217;DHT22;67098;51.140;4.088;2024-03-29T10:40:40;19.00;81.40
32217;DHT22;67098;51.140;4.088;2024-03-29T10:43:11;19.00;81.60
32217;DHT22;67098;51.140;4.088;2024-03-29T10:45:44;19.10;80.10
32217;DHT22;67098;51.140;4.088;2024-03-29T10:48:10;19.30;80.30
32217;DHT22;67098;51.140;4.088;2024-03-29T10:50:37;19.80;79.50
32217;DHT22;67098;51.140;4.088;2024-03-29T10:53:05;20.30;78.50
32217;DHT22;67098;51.140;4.088;2024-03-29T10:55:33;20.30;78.60
32217;DHT22;67098;51.140;4.088;2024-03-29T10:58:00;20.30;77.10
32217;DHT22;67098;51.140;4.088;2024-03-29T11:00:29;20.40;76.70
32217;DHT22;67098;51.140;4.088;2024-03-29T11:03:16;20.50;76.60
32217;DHT22;67098;51.140;4.088;2024-03-29T11:05:55;20.60;76.50
32217;DHT22;67098;51.140;4.088;2024-03-29T11:08:26;20.30;77.80
32217;DHT22;67098;51.140;4.088;2024-03-29T11:10:58;20.20;77.90
32217;DHT22;67098;51.140;4.088;2024-03-29T11:13:40;20.10;76.90
32217;DHT22;67098;51.140;4.088;2024-03-29T11:16:08;20.30;75.80
32217;DHT22;67098;51.140;4.088;2024-03-29T11:18:36;20.40;75.90
32217;DHT22;67098;51.140;4.088;2024-03-29T11:21:02;20.70;74.00
32217;DHT22;67098;51.140;4.088;2024-03-29T11:23:32;20.70;74.40
32217;DHT22;67098;51.140;4.088;2024-03-29T11:25:58;20.50;74.90
32217;DHT22;67098;51.140;4.088;2024-03-29T11:31:04;20.40;75.10
32217;DHT22;67098;51.140;4.088;2024-03-29T11:33:32;20.50;74.70
32217;DHT22;67098;51.140;4.088;2024-03-29T11:36:00;20.60;74.40
32217;DHT22;67098;51.140;4.088;2024-03-29T11:38:34;20.50;74.70
32217;DHT22;67098;51.140;4.088;2024-03-29T11:41:09;20.30;74.90
32217;DHT22;67098;51.140;4.088;2024-03-29T11:43:36;20.20;74.90
32217;DHT22;67098;51.140;4.088;2024-03-29T11:46:06;19.90;74.40
32217;DHT22;67098;51.140;4.088;2024-03-29T11:48:32;19.80;75.50
32217;DHT22;67098;51.140;4.088;2024-03-29T11:50:59;19.80;76.20
32217;DHT22;67098;51.140;4.088;2024-03-29T11:53:25;20.00;76.50
32217;DHT22;67098;51.140;4.088;2024-03-29T11:55:53;20.00;75.80
32217;DHT22;67098;51.140;4.088;2024-03-29T11:58:23;20.30;75.20
32217;DHT22;67098;51.140;4.088;2024-03-29T12:00:53;20.40;74.70
32217;DHT22;67098;51.140;4.088;2024-03-29T12:03:20;20.60;74.40
32217;DHT22;67098;51.140;4.088;2024-03-29T12:05:48;20.70;74.30
32217;DHT22;67098;51.140;4.088;2024-03-29T12:08:16;20.80;72.80
32217;DHT22;67098;51.140;4.088;2024-03-29T12:10:42;20.80;73.10
32217;DHT22;67098;51.140;4.088;2024-03-29T12:13:08;20.90;72.90
32217;DHT22;67098;51.140;4.088;2024-03-29T12:15:35;20.70;73.30
32217;DHT22;67098;51.140;4.088;2024-03-29T12:18:04;20.80;72.70
32217;DHT22;67098;51.140;4.088;2024-03-29T12:20:36;20.90;72.90
32217;DHT22;67098;51.140;4.088;2024-03-29T12:23:04;20.70;72.20
32217;DHT22;67098;51.140;4.088;2024-03-29T12:25:31;20.60;73.20
32217;DHT22;67098;51.140;4.088;2024-03-29T12:27:58;20.70;73.10
32217;DHT22;67098;51.140;4.088;2024-03-29T12:30:25;20.70;72.80
32217;DHT22;67098;51.140;4.088;2024-03-29T12:33:05;20.60;72.50
32217;DHT22;67098;51.140;4.088;2024-03-29T12:35:37;20.60;73.40
32217;DHT22;67098;51.140;4.088;2024-03-29T12:38:04;20.50;73.60
32217;DHT22;67098;51.140;4.088;2024-03-29T12:40:32;20.70;74.00
32217;DHT22;67098;51.140;4.088;2024-03-29T12:43:04;20.70;73.50
32217;DHT22;67098;51.140;4.088;2024-03-29T12:45:34;20.80;73.00
32217;DHT22;67098;51.140;4.088;2024-03-29T12:48:01;21.00;73.30
32217;DHT22;67098;51.140;4.088;2024-03-29T12:50:29;21.20;73.10
32217;DHT22;67098;51.140;4.088;2024-03-29T12:53:00;21.60;72.50
32217;DHT22;67098;51.140;4.088;2024-03-29T12:55:28;22.00;71.10
32217;DHT22;67098;51.140;4.088;2024-03-29T12:57:56;22.60;70.10
32217;DHT22;67098;51.140;4.088;2024-03-29T13:00:22;22.90;70.00
32217;DHT22;67098;51.140;4.088;2024-03-29T13:02:49;23.30;67.50
32217;DHT22;67098;51.140;4.088;2024-03-29T13:05:15;23.60;66.80
32217;DHT22;67098;51.140;4.088;2024-03-29T13:07:41;23.70;65.50
32217;DHT22;67098;51.140;4.088;2024-03-29T13:10:08;23.30;65.90
32217;DHT22;67098;51.140;4.088;2024-03-29T13:12:45;23.30;65.50
32217;DHT22;67098;51.140;4.088;2024-03-29T13:15:25;23.20;65.80
32217;DHT22;67098;51.140;4.088;2024-03-29T13:17:56;23.10;65.60
32217;DHT22;67098;51.140;4.088;2024-03-29T13:20:23;23.00;65.90
32217;DHT22;67098;51.140;4.088;2024-03-29T13:22:50;22.80;66.00
32217;DHT22;67098;51.140;4.088;2024-03-29T13:25:19;22.50;65.50
32217;DHT22;67098;51.140;4.088;2024-03-29T13:27:50;21.90;67.40
32217;DHT22;67098;51.140;4.088;2024-03-29T13:30:21;21.70;68.50
32217;DHT22;67098;51.140;4.088;2024-03-29T13:32:47;21.50;68.30
32217;DHT22;67098;51.140;4.088;2024-03-29T13:35:13;21.40;68.80
32217;DHT22;67098;51.140;4.088;2024-03-29T13:37:39;21.50;69.00
32217;DHT22;67098;51.140;4.088;2024-03-29T13:40:08;21.50;69.00
32217;DHT22;67098;51.140;4.088;2024-03-29T13:42:35;21.20;69.20
32217;DHT22;67098;51.140;4.088;2024-03-29T13:45:01;21.20;68.60
32217;DHT22;67098;51.140;4.088;2024-03-29T13:47:27;21.00;68.80
32217;DHT22;67098;51.140;4.088;2024-03-29T13:49:53;20.90;68.80
32217;DHT22;67098;51.140;4.088;2024-03-29T13:52:20;20.70;68.90
32217;DHT22;67098;51.140;4.088;2024-03-29T13:54:47;20.40;69.20
32217;DHT22;67098;51.140;4.088;2024-03-29T13:57:13;20.40;69.80
32217;DHT22;67098;51.140;4.088;2024-03-29T13:59:39;20.20;70.70
32217;DHT22;67098;51.140;4.088;2024-03-29T14:02:08;20.30;71.80
32217;DHT22;67098;51.140;4.088;2024-03-29T14:04:34;20.50;72.50
32217;DHT22;67098;51.140;4.088;2024-03-29T14:06:59;20.70;72.40
32217;DHT22;67098;51.140;4.088;2024-03-29T14:09:26;20.90;72.10
32217;DHT22;67098;51.140;4.088;2024-03-29T14:11:51;21.00;72.70
32217;DHT22;67098;51.140;4.088;2024-03-29T14:14:17;20.80;72.10
32217;DHT22;67098;51.140;4.088;2024-03-29T14:16:43;20.70;71.70
32217;DHT22;67098;51.140;4.088;2024-03-29T14:19:09;20.50;72.30
32217;DHT22;67098;51.140;4.088;2024-03-29T14:21:34;20.80;72.10
32217;DHT22;67098;51.140;4.088;2024-03-29T14:24:00;20.90;72.00
32217;DHT22;67098;51.140;4.088;2024-03-29T14:26:26;20.80;71.70
32217;DHT22;67098;51.140;4.088;2024-03-29T14:28:52;20.80;70.90
32217;DHT22;67098;51.140;4.088;2024-03-29T14:31:17;20.60;71.40
32217;DHT22;67098;51.140;4.088;2024-03-29T14:33:43;20.50;71.50
32217;DHT22;67098;51.140;4.088;2024-03-29T14:36:10;20.10;71.80
32217;DHT22;67098;51.140;4.088;2024-03-29T14:38:36;20.10;72.70
32217;DHT22;67098;51.140;4.088;2024-03-29T14:41:02;20.40;72.60
32217;DHT22;67098;51.140;4.088;2024-03-29T14:43:27;20.60;72.10
32217;DHT22;67098;51.140;4.088;2024-03-29T14:45:53;20.50;72.20
32217;DHT22;67098;51.140;4.088;2024-03-29T14:48:19;20.50;72.80
32217;DHT22;67098;51.140;4.088;2024-03-29T14:50:45;20.80;72.00
32217;DHT22;67098;51.140;4.088;2024-03-29T14:53:12;20.90;71.20
32217;DHT22;67098;51.140;4.088;2024-03-29T14:55:38;21.00;71.20
32217;DHT22;67098;51.140;4.088;2024-03-29T14:58:05;21.20;71.30
32217;DHT22;67098;51.140;4.088;2024-03-29T15:00:32;21.40;70.40
32217;DHT22;67098;51.140;4.088;2024-03-29T15:02:58;21.40;70.80
32217;DHT22;67098;51.140;4.088;2024-03-29T15:05:23;21.30;69.50
32217;DHT22;67098;51.140;4.088;2024-03-29T15:07:51;21.40;69.50
32217;DHT22;67098;51.140;4.088;2024-03-29T15:10:17;21.40;69.70
32217;DHT22;67098;51.140;4.088;2024-03-29T15:12:45;21.50;69.00
32217;DHT22;67098;51.140;4.088;2024-03-29T15:15:14;21.60;67.60
32217;DHT22;67098;51.140;4.088;2024-03-29T15:17:40;22.10;67.70
32217;DHT22;67098;51.140;4.088;2024-03-29T15:20:07;22.50;66.90
32217;DHT22;67098;51.140;4.088;2024-03-29T15:22:37;22.70;65.90
32217;DHT22;67098;51.140;4.088;2024-03-29T15:25:06;22.40;65.40
32217;DHT22;67098;51.140;4.088;2024-03-29T15:27:32;22.10;65.70
32217;DHT22;67098;51.140;4.088;2024-03-29T15:30:16;21.60;66.10
32217;DHT22;67098;51.140;4.088;2024-03-29T15:32:42;21.20;67.30